AirNav   Air Wisconsin Up To $57,000 Bonus
 
 663 users online  

2AR1 Etna Airport
Ozark, Arkansas, USA

GOING TO OZARK?


FAA INFORMATION EFFECTIVE 16 JUNE 2022

Location

FAA Identifier: 2AR1
Lat/Long: 35-22-11.4500N 093-50-35.0200W
35-22.190833N 093-50.583667W
35.3698472,-93.8430611
(estimated)
Elevation: 536 ft. / 163 m (estimated)
From city: 7 miles S of OZARK, AR
Time zone: UTC -5 (UTC -6 during Standard Time)
Zip code: 72821

Airport Operations

Airport use: Private use. Permission required prior to landing
Activation date: 09/2017
Control tower: no
ARTCC: MEMPHIS CENTER
FSS: JONESBORO FLIGHT SERVICE STATION
Attendance: UNATTND
Wind indicator: yes
Segmented circle: no

Airport Services

Runway Information

Runway 9/27

Dimensions: 2130 x 100 ft. / 649 x 30 m
Surface: turf
RUNWAY 9  RUNWAY 27
Traffic pattern: leftleft

Airport Ownership and Management from official FAA records

Ownership: Privately-owned
Owner: JIM LANE
8020 LANES PLACE
OZARK, AR 72949
Phone 479-667-8412
Manager: JIM LANE
9020 LANES PLACE
OZARK, AR 72949
Phone 479-667-8412

Additional Remarks

FOR CD CTC RAZORBACK APCH 479-649-2416, WHEN APCH CLSD CTC MEMPHIS ARTCC AT 901-368-8453/8449.

Instrument Procedures

There are no published instrument procedures at 2AR1.

Some nearby airports with instrument procedures:

7M5 - Ozark/Franklin County Airport (8 nm N)
H35 - Clarksville Municipal Airport (21 nm E)
KFSM - Fort Smith Regional Airport (26 nm W)
32A - Danville Municipal Airport (27 nm SE)
KRUE - Russellville Regional Airport (37 nm E)
 
Loc | Ops | Rwys | IFR | FBO | Links
Com | Nav | Svcs | Stats | Notes
Aerial photo
No photo
 
Airport distance calculator
Flying to Etna Airport? Find the distance to fly.

From to 2AR1

Sunrise and sunset
Times for 25-Jun-2022
 Local
(UTC-5)
 Zulu
(UTC)
Morning civil twilight05:3310:33
Sunrise06:0311:03
Sunset20:3301:33
Evening civil twilight21:0302:03

Current date and time
Zulu (UTC)  26-Jun-2022 04:53:36
Local (UTC-5)  25-Jun-2022 23:53:36
 
METAR
KFSM 
26nm W 
260353Z AUTO 17003KT 10SM CLR 31/24 A3000 RMK AO2 SLP150 T03060239
KRUE 
37nm E 
260353Z AUTO 00000KT 10SM CLR 27/24 A3000 RMK AO2 SLP150 T02720239 $
KFYV 
42nm N 
260353Z AUTO 00000KT 8SM CLR 26/24 A3006 RMK AO2 SLP162 T02560239
KRKR 
43nm SW 
260435Z AUTO 00000KT 10SM CLR 27/22 A3001 RMK AO2
KJSV 
47nm W 
260435Z AUTO 00000KT 10SM CLR 26/23 A3002 RMK AO2
KASG 
50nm N 
260148Z 15003KT 10SM CLR 31/25 A3002
TAF
KFSM 
26nm W 
251720Z 2518/2618 20007KT P6SM SKC FM260000 VRB04KT P6SM SCT250 FM261500 02011KT P6SM VCSH SCT025 BKN250
NOTAMs
Click for the latest NOTAMs
NOTAMs are issued by the DoD/FAA and will open in a separate window not controlled by AirNav.

 

 
 

Would you like to see your business listed on this page?

 If your business provides an interesting product or service to pilots, flight crews, aircraft, or users of the Etna Airport, you should consider listing it here.  To start the listing process, click on the button below
 
Add a business
 

Other Pages about Etna Airport

Update a link
 
Copyright © AirNav, LLC. All rights reserved. Privacy Policy  Contact